17 agosto 2022

Tempo Codice Tempo metereologico Temp. Vista Base nuvolosa Vento METAR/SPECI
4:52 am
V
68 °F 10 mi 3.700 ft 010° 010° 7 kt METAR KCLT 170852Z 01007KT 10SM SCT017 BKN037 OVC075 20/18 A2997 RMK SLP141 T02000178 58001
3:52 am
V
68 °F 10 mi 3.800 ft 030° 030° 5 kt METAR KCLT 170752Z 03005KT 10SM BKN038 OVC070 20/18 A2997 RMK SLP144 T02000178
2:52 am
V
68 °F 10 mi 7.000 ft 010° 010° 6 kt METAR KCLT 170652Z 01006KT 10SM FEW035 BKN070 20/18 A2997 RMK SLP141 T02000183
1:52 am
V
68 °F 10 mi 4.900 ft 020° 020° 5 kt METAR KCLT 170552Z 02005KT 10SM BKN049 BKN085 20/18 A2997 RMK SLP142 T02000183 10217 20200 58008
12:52 am
V
70 °F 10 mi 8.500 ft 010° 010° 6 kt METAR KCLT 170452Z 01006KT 10SM OVC085 21/18 A2998 RMK SLP146 T02060183 402280194

16 agosto 2022

Tempo Codice Tempo metereologico Temp. Vista Base nuvolosa Vento METAR/SPECI
11:52 pm
V
70 °F 10 mi 7.500 ft 020° 020° 6 kt METAR KCLT 170352Z 02006KT 10SM SCT046 BKN075 21/18 A3000 RMK SLP151 T02110183
10:52 pm
V
70 °F 10 mi 3.600 ft 010° 010° 4 kt METAR KCLT 170252Z 01004KT 10SM BKN036 BKN075 21/18 A3000 RMK SLP151 T02110183 51015
9:52 pm
V
70 °F 10 mi 3.200 ft 010° 010° 3 kt METAR KCLT 170152Z 01003KT 10SM OVC032 21/19 A2998 RMK SLP147 T02110189
8:52 pm
V
72 °F 10 mi 3.100 ft 010° 010° 6 kt METAR KCLT 170052Z 01006KT 10SM FEW021 OVC031 22/18 A2997 RMK SLP140 T02170183
7:52 pm
M
72 °F 10 mi 2.500 ft 020° 020° 6 kt METAR KCLT 162352Z 02006KT 10SM FEW018 OVC025 22/18 A2995 RMK SLP135 T02170183 10228 20211 58006
6:52 pm
M
72 °F 10 mi 2.300 ft 030° 030° 8 kt METAR KCLT 162252Z 03008KT 10SM SCT018 OVC023 22/18 A2996 RMK SLP137 T02220183
5:52 pm
M
72 °F 10 mi 1.800 ft 360° 360° 7 kt METAR KCLT 162152Z 36007KT 10SM FEW014 BKN018 OVC025 22/18 A2997 RMK SLP141 T02170183
4:52 pm
M
72 °F 10 mi 1.500 ft 010° 010° 6 kt METAR KCLT 162052Z 01006KT 10SM BKN015 OVC018 22/19 A2997 RMK SLP140 T02220189 58005
3:52 pm
M
72 °F 10 mi 1.400 ft 020° 020° 8 kt METAR KCLT 161952Z 02008KT 10SM BKN014 OVC017 22/19 A2997 RMK SLP141 T02170189
2:52 pm
M
72 °F 10 mi 1.300 ft 040° 040° 8 kt METAR KCLT 161852Z 04008KT 10SM OVC013 22/18 A2998 RMK SLP145 T02170183
1:52 pm
M
72 °F 10 mi 1.000 ft 040° 040° 6 kt METAR KCLT 161752Z 04006KT 10SM BKN010 OVC014 22/18 A2998 RMK SLP145 60001 T02170183 10217 20194 52004
1:40 pm
M
72 °F 10 mi 1.000 ft 050° 050° 8 kt METAR KCLT 161740Z 05008KT 10SM BKN010 OVC014 22/18 A2999 RMK T02170183
12:52 pm
I
70 °F 9 mi 700 ft 020° 020° 8 kt METAR KCLT 161652Z 02008KT 9SM OVC007 21/18 A2998 RMK SLP144 T02060183
11:52 am
I
68 °F 9 mi 600 ft 030° 030° 7 - 16 kt METAR KCLT 161552Z 03007G16KT 9SM OVC006 20/18 A2997 RMK SLP142 T02000183
10:52 am
I
66 °F 6 mi 500 ft 020° 020° 7 kt METAR KCLT 161452Z 02007KT 6SM BR BKN005 OVC011 19/18 A2997 RMK SLP142 60001 T01940183 51012
9:52 am
I
66 °F 3 mi 500 ft 020° 020° 8 kt METAR KCLT 161352Z 02008KT 3SM BR BKN005 OVC009 19/18 A2996 RMK DZE11 SLP138 P0001 T01940183
9:25 am
L
68 °F 2½ mi 300 ft 020° 020° 6 kt METAR KCLT 161325Z 02006KT 2 1/2SM BR BKN003 OVC007 20/19 A2996 RMK DZE11 P0001 T02000189
8:52 am
L
66 °F 1½ mi 400 ft 030° 030° 8 kt METAR KCLT 161252Z 03008KT 1 1/2SM -DZ BR OVC004 19/19 A2995 RMK RAE15DZB41 SLP136 P0000 T01940189
8:42 am
L
66 °F 1¼ mi 400 ft 040° 040° 10 kt METAR KCLT 161242Z 04010KT 1 1/4SM -DZ BR OVC004 19/19 A2995 RMK RAE15DZB41 P0000 T01940189
8:24 am
L
68 °F 2 mi 400 ft 050° 050° 7 kt METAR KCLT 161224Z 05007KT 2SM BR OVC004 20/19 A2995 RMK RAE15 P0000 T02000189
7:52 am
L
68 °F 1½ mi 400 ft 040° 040° 9 kt METAR KCLT 161152Z 04009KT 1 1/2SM -RA BR OVC004 20/19 A2994 RMK DZE37RAB37 SLP129 P0001 60001 70011 T02000194 10222 20200 53013
7:38 am
L
68 °F 1½ mi 400 ft Var 000° 0 kt METAR KCLT 161138Z 04008 KT 1 1/2SM -RA BR BKN004 OVC008 20/19 A2993 RMK DZE37RAB37 CIG 003V007 P0000 T02000194 $
7:20 am
I
70 °F 2 mi 500 ft 040° 040° 8 - 17 kt METAR KCLT 161120Z 04008G17KT 2SM -DZ BR OVC005 21/19 A2992 RMK CIG 003V011 P0000 T02060194 $
6:52 am
I
70 °F 3 mi 500 ft 060° 060° 9 kt METAR KCLT 161052Z 06009KT 3SM -DZ BR OVC005 21/20 A2991 RMK DZB42 SLP121 P0000 T02060200 $
5:52 am
I
70 °F 10 mi 600 ft 070° 070° 9 kt METAR KCLT 160952Z 07009KT 10SM OVC006 21/19 A2990 RMK CIG 005V010 SLP116 T02110194 $
5:15 am
I
72 °F 9 mi 800 ft 040° 040° 7 kt METAR KCLT 160915Z 04007KT 9SM OVC008 22/20 A2990 RMK CIG 005V010 T02170200 $
4:52 am
I
72 °F 10 mi 600 ft 040° 040° 6 kt METAR KCLT 160852Z 04006KT 10SM OVC006 22/20 A2990 RMK CIG 004V010 SLP115 T02170200 57005 $
3:52 am
I
72 °F 6 mi 700 ft 050° 050° 8 kt METAR KCLT 160752Z 05008KT 6SM BR OVC007 22/21 A2990 RMK CIG 004V009 SLP117 T02170206 $
2:52 am
I
72 °F 8 mi 700 ft 070° 070° 6 kt METAR KCLT 160652Z 07006KT 8SM OVC007 22/21 A2991 RMK CIG 005V010 SLP118 T02170206 $
2:23 am
I
72 °F 10 mi 700 ft 070° 070° 6 kt METAR KCLT 160623Z 07006KT 10SM BKN007 OVC011 22/21 A2990 RMK T02220206 $

15 agosto 2022

Tempo Codice Tempo metereologico Temp. Vista Base nuvolosa Vento METAR/SPECI
11:52 pm
M
73 °F 10 mi 1.500 ft 090° 090° 4 kt METAR KCLT 160352Z 09004KT 10SM BKN015 23/21 A2992 RMK SLP123 T02330211 $
10:52 pm
M
73 °F 10 mi 1.300 ft 060° 060° 7 kt METAR KCLT 160252Z 06007KT 10SM BKN013 23/21 A2991 RMK SLP120 60000 T02280211 53019 $
9:52 pm
V
72 °F 8 mi - 340° 340° 5 kt METAR KCLT 160152Z 34005KT 8SM FEW080 SCT110 SCT200 22/21 A2989 RMK SLP113 T02170206 $
8:52 pm
V
72 °F 10 mi 20.000 ft 360° 360° 5 kt METAR KCLT 160052Z 36005KT 10SM FEW080 SCT130 BKN200 22/19 A2986 RMK RAE03 SLP104 FRQ LTG DSNT SE-S CB DSNT SE-S P0000 T02170194 $
7:52 pm
V
73 °F 10 mi 11.000 ft 050° 050° 7 kt METAR KCLT 152352Z 05007KT 010V070 10SM -RA FEW016 SCT085 BKN110 BKN200 23/20 A2985 RMK RAB06 SLP102 P0004 60010 T02280200 10311 20222 51005 $
6:52 pm
V
73 °F 10 mi 10.000 ft Var Var 3 kt METAR KCLT 152252Z VRB03KT 10SM FEW016 FEW055 BKN100 BKN180 23/21 A2985 RMK RAE39 TSE11 PRESRR SLP101 LTG DSNT SE-S TS DSIPTD CB DSNT SE-S AND NW P0005 T02280206 $
6:17 pm
V
73 °F 10 mi 5.500 ft 300° 300° 4 kt METAR KCLT 152217Z 30004KT 10SM -RA FEW016 BKN055 OVC110 23/20 A2983 RMK TSE11 PRESFR TS DSIPTD P0005 T02280200 $
5:52 pm
I
75 °F 3 mi 5.000 ft 350° 350° 17 - 24 kt METAR KCLT 152152Z 35017G24KT 3SM R18C/2400VP6000 TSRA BR SCT014 BKN050CB OVC110 24/22 A2985 RMK PK WND 34028/2141 RAB31 TSB28 SLP100 OCNL LTGCCCG OHD-N TS OHD-N MOV SE P0001 T02390222 $
5:34 pm
V
81 °F 9 mi 11.000 ft 360° 360° 12 kt METAR KCLT 152134Z 36012KT 9SM -TSRA SCT045CB BKN110 OVC200 27/21 A2985 RMK RAB31 TSB28 OCNL LTGCCCG NW-N TS NW-N MOV SE P0000 T02670211
4:52 pm
V
82 °F 10 mi 20.000 ft 010° 010° 6 kt METAR KCLT 152052Z 01006KT 10SM SCT045 SCT100 BKN200 28/20 A2984 RMK SLP095 CB DSNT NW TCU DSNT E T02830200 55016
3:52 pm
V
86 °F 10 mi 25.000 ft 210° 210° 3 kt METAR KCLT 151952Z 21003KT 10SM FEW040TCU SCT090 BKN250 30/19 A2983 RMK SLP092 TCU NW-N AND DSNT E-S T03000194
2:52 pm
V
88 °F 10 mi 25.000 ft 250° 250° 4 kt METAR KCLT 151852Z 25004KT 10SM SCT038TCU SCT090 BKN250 31/21 A2986 RMK SLP102 TCU SE-SW-NW T03060206
1:52 pm
V
84 °F 10 mi 25.000 ft 340° 340° 4 kt METAR KCLT 151752Z 34004KT 10SM SCT032TCU SCT090 BKN250 29/21 A2989 RMK SLP110 TCU SE-S AND W AND DSNT E T02940211 10306 20206 58014
12:52 pm
V
84 °F 10 mi 7.500 ft Var Var 4 kt METAR KCLT 151652Z VRB04KT 10SM FEW030 BKN075 BKN250 29/21 A2990 RMK SLP115 T02890206
10:52 am
V
77 °F 10 mi 25.000 ft Var Var 3 kt METAR KCLT 151452Z VRB03KT 10SM FEW015 SCT085 BKN250 25/19 A2993 RMK SLP125 T02500194 56001
9:52 am
V
75 °F 10 mi 25.000 ft 010° 010° 3 kt METAR KCLT 151352Z 01003KT 10SM SCT085 BKN250 24/18 A2993 RMK SLP126 T02390183
8:52 am
V
70 °F 10 mi 8.500 ft 010° 010° 3 kt METAR KCLT 151252Z 01003KT 10SM FEW070 BKN085 BKN250 21/18 A2993 RMK SLP126 TCU DSNT N T02110178
7:52 am
V
70 °F 10 mi 25.000 ft 360° 360° 6 kt METAR KCLT 151152Z 36006KT 10SM FEW075 SCT090 BKN250 21/17 A2993 RMK SLP127 T02060172 10239 20200 53004
6:52 am
V
68 °F 10 mi - 110° 110° 5 kt METAR KCLT 151052Z 11005KT 10SM FEW050 SCT090 SCT250 20/17 A2993 RMK SLP125 T02000167 $
5:52 am
V
70 °F 10 mi - 110° 110° 6 kt METAR KCLT 150952Z 11006KT 10SM FEW050 FEW120 SCT250 21/17 A2993 RMK SLP124 T02060167 $
Dati più vecchi

Noi e le terze parti seguiamo il tuo comportamento in internet sul nostro sito web con i cookie. Se continui, riteniamo che tu sia d'accordo con la nostra politica sui cookie. Per saperne di più